createdAt,value
2022-09-18T00:01:08.513Z,12.50
2022-09-18T00:03:35.581Z,12.50
2022-09-18T00:06:08.349Z,12.40
2022-09-18T00:08:35.511Z,12.40
2022-09-18T00:11:06.153Z,12.30
2022-09-18T00:13:34.237Z,12.20
2022-09-18T00:16:01.190Z,12.10
2022-09-18T00:18:28.353Z,12.00
2022-09-18T00:20:55.105Z,11.90
2022-09-18T00:23:22.210Z,12.00
2022-09-18T00:25:49.208Z,12.10
2022-09-18T00:28:16.220Z,12.00
2022-09-18T00:30:42.831Z,11.90
2022-09-18T00:33:09.583Z,11.70
2022-09-18T00:35:42.002Z,11.70
2022-09-18T00:38:09.277Z,11.60
2022-09-18T00:40:36.164Z,11.60
2022-09-18T00:43:23.153Z,11.50
2022-09-18T00:46:00.711Z,11.50
2022-09-18T00:48:37.384Z,11.50
2022-09-18T00:51:05.267Z,11.50
2022-09-18T00:53:34.941Z,11.40
2022-09-18T00:56:03.904Z,11.30
2022-09-18T00:58:30.857Z,11.30
2022-09-18T01:00:59.692Z,11.30
2022-09-18T01:03:26.525Z,11.20
2022-09-18T01:06:15.703Z,11.10
2022-09-18T01:08:51.312Z,11.00
2022-09-18T01:11:44.952Z,10.90
2022-09-18T01:14:33.358Z,10.90
2022-09-18T01:17:25.816Z,10.90
2022-09-18T01:20:20.596Z,10.90
2022-09-18T01:23:23.981Z,10.90
2022-09-18T01:26:18.777Z,10.90
2022-09-18T01:28:58.754Z,10.90
2022-09-18T01:31:52.733Z,10.70
2022-09-18T01:34:51.047Z,10.70
2022-09-18T01:37:39.845Z,10.60
2022-09-18T01:40:19.035Z,10.60
2022-09-18T01:42:48.704Z,10.60
2022-09-18T01:45:21.020Z,10.50
2022-09-18T01:48:01.303Z,10.60
2022-09-18T01:50:32.337Z,10.50
2022-09-18T01:53:07.853Z,10.60
2022-09-18T01:55:36.861Z,10.50
2022-09-18T01:58:11.949Z,10.50
2022-09-18T02:00:43.329Z,10.60
2022-09-18T02:03:19.924Z,10.60
2022-09-18T02:05:52.129Z,10.60
2022-09-18T02:08:43.028Z,10.50
2022-09-18T02:11:13.138Z,10.50
2022-09-18T02:13:55.450Z,10.50
2022-09-18T02:16:30.475Z,10.50
2022-09-18T02:19:02.889Z,10.50
2022-09-18T02:21:32.430Z,10.40
2022-09-18T02:24:06.996Z,10.40
2022-09-18T02:26:37.448Z,10.40
2022-09-18T02:29:06.623Z,10.40
2022-09-18T02:31:34.070Z,10.40
2022-09-18T02:34:01.228Z,10.40
2022-09-18T02:36:43.368Z,10.40
2022-09-18T02:39:49.245Z,10.30
2022-09-18T02:42:40.046Z,10.30
2022-09-18T02:45:33.198Z,10.20
2022-09-18T02:48:57.073Z,10.30
2022-09-18T02:51:29.692Z,10.20
2022-09-18T02:54:06.740Z,10.30
2022-09-18T02:56:52.345Z,10.30
2022-09-18T02:59:28.817Z,10.40
2022-09-18T03:02:01.399Z,10.30
2022-09-18T03:04:29.056Z,10.30
2022-09-18T03:06:56.254Z,10.30
2022-09-18T03:09:23.803Z,10.20
2022-09-18T03:11:51.033Z,10.20
2022-09-18T03:14:17.858Z,10.20
2022-09-18T03:16:44.961Z,10.10
2022-09-18T03:19:14.262Z,10.20
2022-09-18T03:21:41.456Z,10.20
2022-09-18T03:24:08.518Z,10.10
2022-09-18T03:26:35.670Z,10.20
2022-09-18T03:29:02.588Z,10.20
2022-09-18T03:31:29.732Z,10.20
2022-09-18T03:33:56.682Z,10.10
2022-09-18T03:36:23.765Z,10.10
2022-09-18T03:38:50.521Z,10.10
2022-09-18T03:41:17.461Z,10.10
2022-09-18T03:43:44.458Z,10.00
2022-09-18T03:46:11.252Z,10.10
2022-09-18T03:48:38.133Z,10.10
2022-09-18T03:51:04.991Z,10.10
2022-09-18T03:53:31.913Z,10.10
2022-09-18T03:56:01.770Z,10.10
2022-09-18T03:58:28.441Z,10.10
2022-09-18T04:00:55.505Z,10.00
2022-09-18T04:03:22.684Z,10.00
2022-09-18T04:05:51.042Z,10.00
2022-09-18T04:08:18.641Z,9.90
2022-09-18T04:10:47.678Z,9.90
2022-09-18T04:13:14.422Z,9.90
2022-09-18T04:15:41.626Z,9.90
2022-09-18T04:18:08.475Z,9.90
2022-09-18T04:20:35.503Z,9.90
2022-09-18T04:23:02.170Z,9.80
2022-09-18T04:25:29.982Z,9.80
2022-09-18T04:27:56.667Z,9.70
2022-09-18T04:30:23.597Z,9.70
2022-09-18T04:32:50.361Z,9.70
2022-09-18T04:35:18.572Z,9.70
2022-09-18T04:37:45.496Z,9.70
2022-09-18T04:40:12.399Z,9.60
2022-09-18T04:42:39.105Z,9.60
2022-09-18T04:45:06.665Z,9.60
2022-09-18T04:47:33.440Z,9.60
2022-09-18T04:50:00.136Z,9.60
2022-09-18T04:52:27.190Z,9.70
2022-09-18T04:54:54.187Z,9.70
2022-09-18T04:57:20.930Z,9.80
2022-09-18T04:59:47.947Z,9.70
2022-09-18T05:02:14.988Z,9.70
2022-09-18T05:04:41.968Z,9.70
2022-09-18T05:07:08.642Z,9.70
2022-09-18T05:09:36.136Z,9.70
2022-09-18T05:12:03.293Z,9.80
2022-09-18T05:14:30.184Z,9.80
2022-09-18T05:16:57.398Z,9.70
2022-09-18T05:19:24.299Z,9.70
2022-09-18T05:21:51.575Z,9.70
2022-09-18T05:24:18.628Z,9.70
2022-09-18T05:26:45.532Z,9.70
2022-09-18T05:29:12.422Z,9.80
2022-09-18T05:31:39.588Z,9.90
2022-09-18T05:34:06.548Z,10.00
2022-09-18T05:36:33.222Z,10.10
2022-09-18T05:39:00.480Z,10.00
2022-09-18T05:41:27.332Z,10.00
2022-09-18T05:43:54.743Z,10.00
2022-09-18T05:46:21.507Z,10.10
2022-09-18T05:48:51.531Z,10.20
2022-09-18T05:51:18.397Z,10.30
2022-09-18T05:53:48.454Z,10.30
2022-09-18T05:56:16.617Z,10.50
2022-09-18T05:58:43.523Z,10.60
2022-09-18T06:01:10.786Z,10.60
2022-09-18T06:03:37.626Z,10.70
2022-09-18T06:06:04.868Z,10.70
2022-09-18T06:08:31.726Z,10.70
2022-09-18T06:11:01.337Z,10.80
2022-09-18T06:13:28.384Z,10.90
2022-09-18T06:15:57.335Z,11.10
2022-09-18T06:18:24.889Z,11.10
2022-09-18T06:20:54.926Z,11.00
2022-09-18T06:23:23.654Z,11.20
2022-09-18T06:26:00.924Z,11.10
2022-09-18T06:28:28.064Z,10.90
2022-09-18T06:30:54.789Z,10.80
2022-09-18T06:33:21.829Z,10.70
2022-09-18T06:35:49.188Z,10.60
2022-09-18T06:38:16.391Z,10.50
2022-09-18T06:40:52.888Z,10.60
2022-09-18T06:43:20.402Z,10.60
2022-09-18T06:45:55.268Z,10.70
2022-09-18T06:48:23.554Z,10.90
2022-09-18T06:50:58.045Z,11.20
2022-09-18T06:53:26.313Z,11.80
2022-09-18T06:55:53.368Z,12.40
2022-09-18T06:58:20.274Z,12.70
2022-09-18T07:00:47.317Z,12.70
2022-09-18T07:03:14.276Z,12.70
2022-09-18T07:05:43.062Z,12.70
2022-09-18T07:08:10.299Z,13.30
2022-09-18T07:10:38.544Z,13.50
2022-09-18T07:13:05.470Z,13.90
2022-09-18T07:15:33.636Z,14.20
2022-09-18T07:18:02.820Z,14.60
2022-09-18T07:20:30.196Z,14.70
2022-09-18T07:22:59.763Z,14.50
2022-09-18T07:25:29.316Z,14.10
2022-09-18T07:28:02.008Z,14.00
2022-09-18T07:30:28.988Z,14.00
2022-09-18T07:32:55.768Z,14.00
2022-09-18T07:35:22.725Z,14.50
2022-09-18T07:37:49.712Z,14.50
2022-09-18T07:40:16.679Z,14.80
2022-09-18T07:42:43.429Z,14.70
2022-09-18T07:45:10.512Z,14.80
2022-09-18T07:47:37.577Z,15.20
2022-09-18T07:50:05.020Z,15.40
2022-09-18T07:52:32.134Z,15.70
2022-09-18T07:54:59.234Z,15.80
2022-09-18T07:57:26.230Z,15.70
2022-09-18T07:59:53.545Z,15.80
2022-09-18T08:02:20.311Z,15.90
2022-09-18T08:04:47.346Z,16.00
2022-09-18T08:07:14.366Z,15.90
2022-09-18T08:09:41.694Z,16.10
2022-09-18T08:12:08.540Z,15.80
2022-09-18T08:14:35.448Z,15.80
2022-09-18T08:17:03.981Z,15.80
2022-09-18T08:19:31.073Z,16.00
2022-09-18T08:21:57.841Z,16.30
2022-09-18T08:24:24.948Z,16.40
2022-09-18T08:26:51.795Z,16.30
2022-09-18T08:29:21.378Z,16.60
2022-09-18T08:31:48.510Z,16.30
2022-09-18T08:34:15.826Z,16.30
2022-09-18T08:36:42.605Z,16.40
2022-09-18T08:39:10.460Z,16.70
2022-09-18T08:42:08.588Z,16.70
2022-09-18T08:44:55.145Z,17.10
2022-09-18T08:47:32.029Z,17.50
2022-09-18T08:50:25.734Z,17.70
2022-09-18T08:53:04.317Z,17.90
2022-09-18T08:55:36.206Z,17.70
2022-09-18T08:58:12.165Z,17.50
2022-09-18T09:00:45.785Z,17.40
2022-09-18T09:03:41.450Z,17.30
2022-09-18T09:06:35.852Z,17.30
2022-09-18T09:09:31.796Z,17.40
2022-09-18T09:12:16.600Z,17.30
2022-09-18T09:15:05.373Z,17.40
2022-09-18T09:17:51.937Z,17.40
2022-09-18T09:20:30.432Z,17.80
2022-09-18T09:23:07.742Z,19.00
2022-09-18T09:25:55.144Z,19.60
2022-09-18T09:28:30.980Z,19.90
2022-09-18T09:31:03.144Z,19.80
2022-09-18T09:33:42.005Z,20.00
2022-09-18T09:36:21.913Z,20.70
2022-09-18T09:38:59.496Z,22.00
2022-09-18T09:41:38.477Z,21.60
2022-09-18T09:44:51.497Z,21.80
2022-09-18T09:47:39.288Z,21.70
2022-09-18T09:50:30.085Z,21.20
2022-09-18T09:53:01.239Z,21.50
2022-09-18T09:55:34.742Z,21.20
2022-09-18T09:58:30.217Z,21.10
2022-09-18T10:01:14.107Z,21.30
2022-09-18T10:03:51.361Z,22.30
2022-09-18T10:06:36.917Z,24.00
2022-09-18T10:09:21.471Z,25.60
2022-09-18T10:11:57.688Z,26.30
2022-09-18T10:14:27.439Z,27.00
2022-09-18T10:16:57.165Z,28.30
2022-09-18T10:19:29.576Z,29.10
2022-09-18T10:21:56.584Z,29.90
2022-09-18T10:25:01.537Z,31.40
2022-09-18T10:27:28.190Z,30.60
2022-09-18T10:29:55.053Z,30.60
2022-09-18T10:32:36.687Z,30.50
2022-09-18T10:35:31.378Z,30.30
2022-09-18T10:37:59.324Z,30.30
2022-09-18T10:40:37.203Z,29.60
2022-09-18T10:43:04.873Z,29.00
2022-09-18T10:45:38.064Z,28.00
2022-09-18T10:48:15.850Z,27.70
2022-09-18T10:50:53.995Z,27.40
2022-09-18T10:53:32.145Z,27.00
2022-09-18T10:56:19.351Z,27.60
2022-09-18T10:58:46.664Z,27.10
2022-09-18T11:01:14.701Z,27.10
2022-09-18T11:04:01.822Z,26.90
2022-09-18T11:06:31.034Z,25.90
2022-09-18T11:09:02.189Z,25.00
2022-09-18T11:11:37.473Z,24.40
2022-09-18T11:14:29.361Z,25.30
2022-09-18T11:17:02.123Z,27.10
2022-09-18T11:19:32.949Z,25.80
2022-09-18T11:22:05.807Z,24.00
2022-09-18T11:24:38.194Z,23.80
2022-09-18T11:27:25.454Z,23.30
2022-09-18T11:29:52.874Z,22.70
2022-09-18T11:32:35.922Z,22.20
2022-09-18T11:35:05.166Z,21.90
2022-09-18T11:37:34.590Z,22.50
2022-09-18T11:40:07.612Z,22.30
2022-09-18T11:42:45.595Z,22.30
2022-09-18T11:45:31.301Z,21.60
2022-09-18T11:48:05.524Z,21.10
2022-09-18T11:50:35.890Z,20.60
2022-09-18T11:53:14.505Z,20.20
2022-09-18T11:56:01.577Z,19.60
2022-09-18T11:58:39.848Z,19.60
2022-09-18T12:01:28.135Z,20.20
2022-09-18T12:04:12.526Z,20.50
2022-09-18T12:06:58.534Z,20.50
2022-09-18T12:09:35.156Z,20.60
2022-09-18T12:12:25.924Z,21.00
2022-09-18T12:15:11.129Z,23.40
2022-09-18T12:17:55.846Z,24.90
2022-09-18T12:20:29.004Z,24.70
2022-09-18T12:22:58.297Z,24.40
2022-09-18T12:25:45.177Z,23.60
2022-09-18T12:28:29.497Z,23.10
2022-09-18T12:31:01.104Z,22.90
2022-09-18T12:33:37.040Z,23.30
2022-09-18T12:36:19.170Z,23.10
2022-09-18T12:39:00.335Z,22.50
2022-09-18T12:42:06.897Z,22.00
2022-09-18T12:44:40.310Z,21.60
2022-09-18T12:47:29.077Z,21.00
2022-09-18T12:50:14.341Z,20.90
2022-09-18T12:53:10.325Z,20.10
2022-09-18T12:56:09.937Z,19.50
2022-09-18T12:58:49.641Z,19.20
2022-09-18T13:01:46.048Z,19.00
2022-09-18T13:04:27.390Z,18.80
2022-09-18T13:07:10.161Z,18.50
2022-09-18T13:09:54.885Z,18.30
2022-09-18T13:12:44.698Z,18.00
2022-09-18T13:15:23.291Z,17.80
2022-09-18T13:17:55.128Z,17.50
2022-09-18T13:20:25.055Z,17.50
2022-09-18T13:22:54.545Z,17.60
2022-09-18T13:25:35.099Z,17.80
2022-09-18T13:28:07.089Z,18.30
2022-09-18T13:30:33.844Z,18.80
2022-09-18T13:33:02.104Z,18.90
2022-09-18T13:35:34.842Z,19.10
2022-09-18T13:38:16.001Z,20.00
2022-09-18T13:40:46.191Z,21.70
2022-09-18T13:43:39.056Z,23.30
2022-09-18T13:46:07.519Z,24.70
2022-09-18T13:48:40.254Z,24.80
2022-09-18T13:51:17.393Z,24.30
2022-09-18T13:53:45.144Z,23.30
2022-09-18T13:56:16.768Z,22.90
2022-09-18T13:58:49.152Z,22.10
2022-09-18T14:01:40.805Z,21.50
2022-09-18T14:04:42.196Z,20.80
2022-09-18T14:07:18.260Z,20.30
2022-09-18T14:09:54.728Z,20.10
2022-09-18T14:12:23.508Z,20.10
2022-09-18T14:15:05.394Z,20.00
2022-09-18T14:17:34.970Z,19.90
2022-09-18T14:20:08.208Z,19.70
2022-09-18T14:22:37.991Z,19.80
2022-09-18T14:25:07.136Z,19.80
2022-09-18T14:27:35.650Z,19.80
2022-09-18T14:30:10.979Z,19.90
2022-09-18T14:32:37.916Z,19.90
2022-09-18T14:35:16.791Z,19.90
2022-09-18T14:37:44.627Z,20.10
2022-09-18T14:40:20.772Z,19.90
2022-09-18T14:42:48.374Z,19.80
2022-09-18T14:45:20.331Z,19.60
2022-09-18T14:47:47.877Z,19.40
2022-09-18T14:50:35.026Z,19.00
2022-09-18T14:53:03.493Z,18.90
2022-09-18T14:55:33.816Z,18.90
2022-09-18T14:58:03.097Z,18.60
2022-09-18T15:00:31.217Z,18.50
2022-09-18T15:03:00.873Z,18.50
2022-09-18T15:05:28.287Z,18.50
2022-09-18T15:08:06.793Z,18.50
2022-09-18T15:10:35.536Z,18.60
2022-09-18T15:13:04.368Z,18.40
2022-09-18T15:15:33.311Z,18.20
2022-09-18T15:18:00.872Z,18.20
2022-09-18T15:20:28.572Z,18.30
2022-09-18T15:22:56.523Z,18.50
2022-09-18T15:25:26.243Z,18.60
2022-09-18T15:27:53.872Z,18.70
2022-09-18T15:30:21.732Z,18.80
2022-09-18T15:32:57.716Z,18.80
2022-09-18T15:35:26.276Z,18.70
2022-09-18T15:37:54.644Z,18.50
2022-09-18T15:40:25.896Z,18.40
2022-09-18T15:42:59.985Z,18.40
2022-09-18T15:45:28.619Z,18.20
2022-09-18T15:47:55.987Z,18.20
2022-09-18T15:50:32.001Z,18.10
2022-09-18T15:52:58.732Z,18.20
2022-09-18T15:55:28.740Z,18.30
2022-09-18T15:57:57.133Z,18.10
2022-09-18T16:00:25.096Z,18.10
2022-09-18T16:02:53.024Z,18.10
2022-09-18T16:05:20.829Z,18.10
2022-09-18T16:07:57.396Z,18.20
2022-09-18T16:10:37.043Z,18.20
2022-09-18T16:13:23.668Z,18.10
2022-09-18T16:16:08.995Z,17.80
2022-09-18T16:18:48.355Z,17.70
2022-09-18T16:21:15.275Z,17.70
2022-09-18T16:23:49.632Z,17.40
2022-09-18T16:26:19.589Z,17.40
2022-09-18T16:28:48.378Z,17.40
2022-09-18T16:31:16.682Z,17.40
2022-09-18T16:33:56.924Z,17.30
2022-09-18T16:36:25.655Z,17.40
2022-09-18T16:38:52.429Z,17.40
2022-09-18T16:41:19.150Z,17.30
2022-09-18T16:43:45.705Z,17.10
2022-09-18T16:46:13.982Z,17.10
2022-09-18T16:48:40.855Z,17.10
2022-09-18T16:51:07.665Z,17.10
2022-09-18T16:53:35.072Z,17.00
2022-09-18T16:56:02.992Z,17.00
2022-09-18T16:58:29.825Z,16.90
2022-09-18T17:00:56.851Z,16.80
2022-09-18T17:03:25.912Z,16.90
2022-09-18T17:05:52.877Z,17.00
2022-09-18T17:08:19.452Z,17.00
2022-09-18T17:10:46.139Z,17.00
2022-09-18T17:13:13.201Z,17.10
2022-09-18T17:15:39.833Z,17.00
2022-09-18T17:18:06.727Z,16.90
2022-09-18T17:20:34.333Z,17.00
2022-09-18T17:23:01.067Z,17.00
2022-09-18T17:25:28.084Z,17.00
2022-09-18T17:27:55.043Z,17.10
2022-09-18T17:30:21.620Z,17.00
2022-09-18T17:32:48.784Z,16.90
2022-09-18T17:35:16.217Z,16.90
2022-09-18T17:37:43.705Z,16.90
2022-09-18T17:40:10.851Z,16.90
2022-09-18T17:42:38.383Z,16.90
2022-09-18T17:45:05.768Z,16.80
2022-09-18T17:47:32.690Z,16.80
2022-09-18T17:49:59.333Z,16.80
2022-09-18T17:52:26.459Z,16.80
2022-09-18T17:54:53.428Z,16.70
2022-09-18T17:57:21.388Z,16.60
2022-09-18T17:59:48.293Z,16.70
2022-09-18T18:02:15.122Z,16.60
2022-09-18T18:04:41.998Z,16.70
2022-09-18T18:07:09.103Z,16.70
2022-09-18T18:09:36.724Z,16.70
2022-09-18T18:12:04.425Z,16.80
2022-09-18T18:14:31.577Z,16.70
2022-09-18T18:17:00.682Z,16.30
2022-09-18T18:19:28.380Z,15.20
2022-09-18T18:21:55.299Z,14.50
2022-09-18T18:24:22.486Z,13.90
2022-09-18T18:26:49.858Z,13.40
2022-09-18T18:29:17.691Z,13.30
2022-09-18T18:31:45.754Z,13.10
2022-09-18T18:34:13.529Z,12.90
2022-09-18T18:36:41.108Z,12.60
2022-09-18T18:39:12.869Z,12.60
2022-09-18T18:41:39.938Z,12.70
2022-09-18T18:44:07.016Z,12.60
2022-09-18T18:46:36.118Z,12.60
2022-09-18T18:49:09.043Z,12.60
2022-09-18T18:51:42.865Z,12.60
2022-09-18T18:54:10.155Z,12.60
2022-09-18T18:56:38.431Z,12.60
2022-09-18T18:59:06.972Z,12.50
2022-09-18T19:01:33.760Z,12.40
2022-09-18T19:04:06.542Z,12.50
2022-09-18T19:06:36.209Z,12.40
2022-09-18T19:09:07.456Z,12.40
2022-09-18T19:11:34.973Z,12.40
2022-09-18T19:14:01.549Z,12.50
2022-09-18T19:16:28.971Z,12.50
2022-09-18T19:19:00.363Z,12.40
2022-09-18T19:21:28.301Z,12.40
2022-09-18T19:23:56.340Z,12.30
2022-09-18T19:26:24.175Z,12.30
2022-09-18T19:28:51.684Z,12.20
2022-09-18T19:31:20.213Z,12.30
2022-09-18T19:33:50.796Z,12.20
2022-09-18T19:36:21.696Z,12.10
2022-09-18T19:38:52.220Z,12.00
2022-09-18T19:41:22.385Z,12.10
2022-09-18T19:43:49.116Z,12.10
2022-09-18T19:46:19.825Z,12.20
2022-09-18T19:48:46.540Z,12.20
2022-09-18T19:51:13.468Z,12.20
2022-09-18T19:53:40.123Z,12.30
2022-09-18T19:56:22.665Z,12.30
2022-09-18T19:58:55.927Z,12.30
2022-09-18T20:01:22.570Z,12.40
2022-09-18T20:03:52.175Z,12.50
2022-09-18T20:06:19.797Z,12.50
2022-09-18T20:08:46.615Z,12.60
2022-09-18T20:11:13.227Z,12.70
2022-09-18T20:13:39.826Z,12.80
2022-09-18T20:16:08.089Z,13.00
2022-09-18T20:18:34.893Z,13.10
2022-09-18T20:21:05.812Z,13.30
2022-09-18T20:23:32.589Z,13.30
2022-09-18T20:25:59.181Z,13.40
2022-09-18T20:28:26.243Z,13.30
2022-09-18T20:30:52.897Z,13.40
2022-09-18T20:33:19.505Z,13.60
2022-09-18T20:35:53.382Z,13.70
2022-09-18T20:38:20.049Z,13.80
2022-09-18T20:40:55.827Z,13.70
2022-09-18T20:43:22.510Z,13.70
2022-09-18T20:46:04.522Z,13.80
2022-09-18T20:48:33.026Z,13.90
2022-09-18T20:51:03.723Z,13.90
2022-09-18T20:53:30.335Z,14.10
2022-09-18T20:55:58.331Z,14.10
2022-09-18T20:58:25.589Z,14.20
2022-09-18T21:00:53.425Z,14.10
2022-09-18T21:03:21.061Z,14.00
2022-09-18T21:05:55.696Z,14.00
2022-09-18T21:08:29.831Z,13.80
2022-09-18T21:10:56.477Z,13.70
2022-09-18T21:13:23.087Z,13.60
2022-09-18T21:15:49.800Z,13.50
2022-09-18T21:18:16.843Z,13.50
2022-09-18T21:20:43.486Z,13.40
2022-09-18T21:23:30.322Z,13.30
2022-09-18T21:25:57.184Z,13.20
2022-09-18T21:28:23.808Z,13.10
2022-09-18T21:30:50.413Z,13.10
2022-09-18T21:33:17.551Z,13.00
2022-09-18T21:35:51.481Z,13.10
2022-09-18T21:38:18.171Z,13.10
2022-09-18T21:40:45.505Z,13.00
2022-09-18T21:43:14.219Z,12.90
2022-09-18T21:45:41.008Z,12.90
2022-09-18T21:48:07.557Z,12.80
2022-09-18T21:50:34.808Z,12.80
2022-09-18T21:53:01.653Z,12.70
2022-09-18T21:55:28.767Z,12.70
2022-09-18T21:57:55.695Z,12.60
2022-09-18T22:00:22.227Z,12.50
2022-09-18T22:02:53.252Z,12.50
2022-09-18T22:05:20.524Z,12.40
2022-09-18T22:07:47.257Z,12.40
2022-09-18T22:10:16.100Z,12.40
2022-09-18T22:12:42.975Z,12.40
2022-09-18T22:15:09.643Z,12.30
2022-09-18T22:17:36.280Z,12.30
2022-09-18T22:20:04.237Z,12.20
2022-09-18T22:22:30.996Z,12.20
2022-09-18T22:24:57.843Z,12.10
2022-09-18T22:27:24.534Z,12.20
2022-09-18T22:29:51.380Z,11.90
2022-09-18T22:32:18.151Z,11.80
2022-09-18T22:34:44.814Z,11.90
2022-09-18T22:37:11.589Z,11.90
2022-09-18T22:39:38.445Z,11.80
2022-09-18T22:42:05.707Z,11.80
2022-09-18T22:44:32.632Z,11.70
2022-09-18T22:46:59.636Z,11.60
2022-09-18T22:49:26.248Z,11.60
2022-09-18T22:51:52.931Z,11.70
2022-09-18T22:54:23.885Z,11.80
2022-09-18T22:56:52.170Z,11.80
2022-09-18T22:59:19.961Z,11.80
2022-09-18T23:01:47.725Z,11.90
2022-09-18T23:04:17.602Z,11.90
2022-09-18T23:06:45.304Z,12.10
2022-09-18T23:09:13.643Z,12.20
2022-09-18T23:11:41.499Z,12.20
2022-09-18T23:14:11.545Z,12.10
2022-09-18T23:16:38.200Z,12.10
2022-09-18T23:19:07.043Z,11.90
2022-09-18T23:21:34.604Z,11.80
2022-09-18T23:24:05.948Z,11.90
2022-09-18T23:26:36.539Z,11.70
2022-09-18T23:29:04.827Z,11.70
2022-09-18T23:31:32.746Z,11.60
2022-09-18T23:34:00.824Z,11.60
2022-09-18T23:36:28.755Z,11.60
2022-09-18T23:38:56.568Z,11.50
2022-09-18T23:41:23.825Z,11.50
2022-09-18T23:43:51.674Z,11.50
2022-09-18T23:46:18.600Z,11.50
2022-09-18T23:48:45.595Z,11.50
2022-09-18T23:51:12.417Z,11.40
2022-09-18T23:53:39.751Z,11.30
2022-09-18T23:56:07.997Z,11.30
2022-09-18T23:58:35.056Z,11.20
